Aérodrome :
LOGIN :

S'inscrire | Disclaimer

   EN    FR    IT 

 










Légende :    VFR   VFR Marginal   IFR   IFR Intensif   IFR Très Intensif
Visi : 
Plafond : 
>= 8 km
>= 3000ft
5 à 8 km
1000 à 3000 ft
1500m à 5 km
500 à 1000 ft
800 à 1500m
200 à 500 ft
< 800m
< 200 ft
Symboles :   Orages  Brouillard  Fortes neiges  Fortes précipitations  Vent > 20 kt
SIGMETs :   Divers  Orages  Givrage  Turbulence  Onde Orograph.  Cendres Volcan.






- Altitude de l'aérodrome : 407 ft


EGDM - MoD Boscombe Down Amesbury

DERNIER METAR :
  • 211028Z 00000KT 5000 BR FEW018 M01/M01 Q1042 NOSIG RMK WHT WHT

METARs EXPIRÉS :
  • 211021Z 00000KT 4000 BR FEW018 M01/M01 Q1042 BECMG 5000 RMK BLACKGRN BECMG WHT
  • 210950Z 00000KT 5000 3500SW BR FEW018 M01/M01 Q1042 BECMG 5000 RMK YLO1 BECMG WHT
  • 210920Z 00000KT 2000 VCFG BR FEW018 M02/M02 Q1042 BECMG 3000 RMK YLO2 BECMG YLO1
  • 210850Z 00000KT 0600 FZFG FEW001 M03/M03 Q1042 BECMG 2000 BR RMK RED BECMG YLO2
  • 210820Z 00000KT 0400 FZFG SKC M04/M04 Q1042 NOSIG RMK RED RED
  • 210750Z 00000KT 0300 FZFG FEW001 M04/M04 Q1042 NOSIG RMK RED RED

TAF TAF EGDM
Valide du 21 à 09h jusqu'au 21 à 18h UTC


210727Z 2109/2118 VRB02KT 0200 FZFG SCT001
BECMG 2109/2112 6000 BR FEW004
BECMG 2112/2114 9999 NSW
BECMG 2116/2118 6000 BR



MET'MAP, la Météo Aéronautique d'un coup d'oeil ! - Copyright ORBIFLY Décembre 2007 - Disclaimer

ORBIFLY MET'MAP TEAM :

Programmation & Développement : Alexandra Zaïnal
Sur une idée originale de : Baudouin d'Aumeries
Assistance à la programmation : Marc-Olivier Méhu
Soutien technique & logistique : Manuel Goepfert

Contact : metmap@orbifly.com




SOURCES & CREDITS :

   NOAA